Time;durP1;ratioP1;P1;durP2;ratioP2;P2;SDS_P1;SDS_P2;PMS_P1;PMS_P2;Temp;Humidity;BMP_temperature;BMP_pressure;BME280_temperature;BME280_humidity;BME280_pressure;Samples;Min_cycle;Max_cycle;Signal;HPM_P1;HPM_P2
2023/05/01 00:02:03;;;;;;;6.80;6.10;;;23.50;67.20;;;;;;6252648;28;94085;-72
2023/05/01 00:05:06;;;;;;;6.43;5.82;;;23.40;67.20;;;;;;6247746;28;94033;-71
2023/05/01 00:08:09;;;;;;;6.97;6.20;;;23.50;67.50;;;;;;6252390;28;94098;-70
2023/05/01 00:11:11;;;;;;;6.30;5.63;;;23.50;67.40;;;;;;6243379;27;93139;-71
2023/05/01 00:14:13;;;;;;;7.70;6.18;;;23.40;67.80;;;;;;6235897;28;94402;-70
2023/05/01 00:17:16;;;;;;;6.68;6.07;;;23.40;67.50;;;;;;6245363;27;94079;-71
2023/05/01 00:20:18;;;;;;;6.32;5.80;;;23.50;67.60;;;;;;6245391;28;93409;-70
2023/05/01 00:23:21;;;;;;;6.50;5.90;;;23.40;68.50;;;;;;6244373;27;94559;-70
2023/05/01 00:26:27;;;;;;;6.85;6.15;;;23.40;67.70;;;;;;6252189;28;92809;-70
2023/05/01 00:29:29;;;;;;;7.05;6.45;;;23.40;67.80;;;;;;6248060;28;95280;-70
2023/05/01 00:32:31;;;;;;;6.57;5.97;;;23.40;67.90;;;;;;6235776;28;94461;-71
2023/05/01 00:35:34;;;;;;;6.40;5.72;;;23.40;68.00;;;;;;6243200;28;94068;-70
2023/05/01 00:38:38;;;;;;;6.78;6.13;;;23.40;68.10;;;;;;6242469;28;94104;-70
2023/05/01 00:41:40;;;;;;;7.28;6.38;;;23.40;68.20;;;;;;6249077;28;94248;-71
2023/05/01 00:44:42;;;;;;;6.90;6.18;;;23.40;68.30;;;;;;6250161;27;94119;-71
2023/05/01 00:47:44;;;;;;;6.88;6.28;;;23.40;68.10;;;;;;6238147;27;94017;-71
2023/05/01 00:50:47;;;;;;;6.15;5.57;;;23.40;68.20;;;;;;6242179;28;93210;-71
2023/05/01 00:53:51;;;;;;;6.38;5.88;;;23.40;68.30;;;;;;6248293;28;94455;-70
2023/05/01 00:56:54;;;;;;;6.60;6.00;;;23.40;68.20;;;;;;6252904;28;94107;-71
2023/05/01 00:59:56;;;;;;;6.85;6.15;;;23.40;68.30;;;;;;6248454;28;95176;-71
2023/05/01 01:02:58;;;;;;;6.40;5.75;;;23.40;68.30;;;;;;6252394;28;94182;-70
2023/05/01 01:06:08;;;;;;;6.95;5.88;;;23.40;68.30;;;;;;6245689;28;95034;-71
2023/05/01 01:09:21;;;;;;;7.45;6.20;;;23.40;68.20;;;;;;6250189;28;94184;-70
2023/05/01 01:12:28;;;;;;;6.10;5.50;;;23.30;67.90;;;;;;6250011;28;94076;-70
2023/05/01 01:15:35;;;;;;;6.18;5.57;;;23.30;68.00;;;;;;6252626;28;94205;-70
2023/05/01 01:18:43;;;;;;;5.60;5.10;;;23.40;68.10;;;;;;6242156;28;94122;-70
2023/05/01 01:21:49;;;;;;;5.53;5.00;;;23.40;67.90;;;;;;6248733;28;93352;-70
2023/05/01 01:25:09;;;;;;;6.50;5.88;;;23.40;67.90;;;;;;6248408;28;94152;-70
2023/05/01 01:28:32;;;;;;;5.47;5.00;;;23.30;67.60;;;;;;6249531;28;94239;-70
2023/05/01 01:31:46;;;;;;;5.95;5.35;;;23.30;67.50;;;;;;6239271;28;94999;-70
2023/05/01 01:34:54;;;;;;;6.68;4.93;;;23.30;67.20;;;;;;6242187;28;94063;-71
2023/05/01 01:38:01;;;;;;;5.43;4.93;;;23.30;67.10;;;;;;6251692;28;94019;-70
2023/05/01 01:41:09;;;;;;;5.88;5.03;;;23.30;67.10;;;;;;6248858;28;94182;-70
2023/05/01 01:44:20;;;;;;;5.78;5.18;;;23.30;66.90;;;;;;6242937;28;94151;-70
2023/05/01 01:47:27;;;;;;;5.25;4.75;;;23.30;67.10;;;;;;6255660;28;94008;-70
2023/05/01 01:50:32;;;;;;;4.97;4.47;;;23.30;67.20;;;;;;6255473;28;94178;-70
2023/05/01 01:53:36;;;;;;;5.47;4.90;;;23.30;67.20;;;;;;6253989;28;93404;-71
2023/05/01 01:56:41;;;;;;;5.30;4.88;;;23.30;67.10;;;;;;6256569;27;94068;-70
2023/05/01 01:59:46;;;;;;;4.97;4.55;;;23.30;66.90;;;;;;6256291;28;94223;-69
2023/05/01 02:02:49;;;;;;;5.25;4.40;;;23.30;66.70;;;;;;6255102;28;95336;-69
2023/05/01 02:05:54;;;;;;;5.15;4.70;;;23.30;66.60;;;;;;6246644;28;94378;-73
2023/05/01 02:08:59;;;;;;;4.60;4.20;;;23.20;66.60;;;;;;6242550;28;93899;-73
2023/05/01 02:12:04;;;;;;;5.05;4.53;;;23.30;66.60;;;;;;6254145;28;94127;-72
2023/05/01 02:15:10;;;;;;;4.53;4.13;;;23.20;66.50;;;;;;6255601;28;94132;-73
2023/05/01 02:18:12;;;;;;;4.90;4.40;;;23.20;66.60;;;;;;6254924;27;92876;-73
2023/05/01 02:21:16;;;;;;;4.82;4.30;;;23.20;66.40;;;;;;6254509;28;94120;-74
2023/05/01 02:24:22;;;;;;;4.72;4.32;;;23.20;66.70;;;;;;6244312;28;92355;-72
2023/05/01 02:27:30;;;;;;;4.82;4.03;;;23.20;66.60;;;;;;6254128;27;94106;-73
2023/05/01 02:30:32;;;;;;;4.57;4.18;;;23.20;66.60;;;;;;6254407;28;94269;-71
2023/05/01 02:33:34;;;;;;;5.32;4.32;;;23.20;66.60;;;;;;6253346;28;95038;-76
2023/05/01 02:36:38;;;;;;;5.13;4.30;;;23.20;66.40;;;;;;6250609;28;94587;-73
2023/05/01 02:39:40;;;;;;;4.60;4.20;;;23.20;66.40;;;;;;6245937;27;94198;-73
2023/05/01 02:42:44;;;;;;;4.90;4.38;;;23.20;66.30;;;;;;6239262;28;94442;-74
2023/05/01 02:45:47;;;;;;;4.15;3.75;;;23.10;66.20;;;;;;6244313;28;94024;-73
2023/05/01 02:48:49;;;;;;;4.38;3.97;;;23.10;66.20;;;;;;6254031;28;94039;-73
2023/05/01 02:51:53;;;;;;;4.18;3.88;;;23.10;66.20;;;;;;6242733;28;94400;-73
2023/05/01 02:54:56;;;;;;;3.97;3.65;;;23.10;66.20;;;;;;6254647;28;93456;-72
2023/05/01 02:57:59;;;;;;;4.07;3.75;;;23.10;66.20;;;;;;6253142;28;94077;-72
2023/05/01 03:01:01;;;;;;;4.38;3.97;;;23.10;66.60;;;;;;6253507;28;93988;-72
2023/05/01 03:04:03;;;;;;;4.85;3.95;;;23.10;66.50;;;;;;6253959;28;95692;-73
2023/05/01 03:07:07;;;;;;;4.25;3.70;;;23.10;66.40;;;;;;6254738;28;94108;-73
2023/05/01 03:10:09;;;;;;;4.30;3.70;;;23.10;66.10;;;;;;6253851;28;94373;-74
2023/05/01 03:13:11;;;;;;;4.50;4.10;;;23.10;65.90;;;;;;6252046;28;94513;-72
2023/05/01 03:16:13;;;;;;;6.10;3.92;;;23.10;65.90;;;;;;6250896;28;94140;-71
2023/05/01 03:19:15;;;;;;;4.63;3.92;;;23.10;65.70;;;;;;6253738;28;94107;-71
2023/05/01 03:22:19;;;;;;;3.85;3.55;;;23.10;65.70;;;;;;6246845;28;94147;-72
2023/05/01 03:25:21;;;;;;;3.78;3.47;;;23.10;65.50;;;;;;6250362;28;92198;-72
2023/05/01 03:28:23;;;;;;;4.35;3.80;;;23.10;65.50;;;;;;6254167;28;94453;-72
2023/05/01 03:31:25;;;;;;;4.45;3.60;;;23.10;65.60;;;;;;6253288;28;94188;-71
2023/05/01 03:34:27;;;;;;;5.05;3.95;;;23.10;65.70;;;;;;6251644;28;95093;-73
2023/05/01 03:37:30;;;;;;;4.32;3.85;;;23.10;65.90;;;;;;6253910;28;94176;-72
2023/05/01 03:40:32;;;;;;;4.03;3.60;;;23.00;65.90;;;;;;6243392;28;94379;-72
2023/05/01 03:43:34;;;;;;;4.22;3.60;;;23.00;65.90;;;;;;6253332;28;94097;-72
2023/05/01 03:46:36;;;;;;;4.75;3.72;;;23.10;65.90;;;;;;6254574;28;94105;-72
2023/05/01 03:49:38;;;;;;;3.85;3.42;;;23.00;65.90;;;;;;6253319;28;94542;-73
2023/05/01 03:52:42;;;;;;;4.28;3.35;;;23.00;65.90;;;;;;6251303;28;94974;-72
2023/05/01 03:55:44;;;;;;;3.90;3.55;;;23.00;65.80;;;;;;6255686;28;93359;-72
2023/05/01 03:58:46;;;;;;;5.07;3.40;;;23.00;65.90;;;;;;6253734;28;94077;-72
2023/05/01 04:01:48;;;;;;;4.70;3.38;;;23.10;65.50;;;;;;6253796;28;94102;-72
2023/05/01 04:04:50;;;;;;;4.07;3.70;;;23.00;65.40;;;;;;6252372;28;95006;-72
2023/05/01 04:07:54;;;;;;;3.83;3.00;;;23.00;65.50;;;;;;6251266;28;93957;-70
2023/05/01 04:10:56;;;;;;;8.30;3.67;;;23.00;65.40;;;;;;6250741;28;94217;-71
2023/05/01 04:13:57;;;;;;;3.42;3.10;;;23.00;65.50;;;;;;6243355;28;94381;-70
2023/05/01 04:16:59;;;;;;;3.65;3.22;;;23.00;65.70;;;;;;6242023;28;94132;-70
2023/05/01 04:20:03;;;;;;;3.38;3.08;;;23.00;65.90;;;;;;6251970;28;94134;-71
2023/05/01 04:23:08;;;;;;;3.80;3.22;;;23.10;66.00;;;;;;6242127;28;92905;-71
2023/05/01 04:26:10;;;;;;;5.00;3.28;;;23.10;66.10;;;;;;6252316;28;93482;-72
2023/05/01 04:29:12;;;;;;;3.38;3.08;;;23.10;66.20;;;;;;6253694;28;93972;-71
2023/05/01 04:32:16;;;;;;;3.97;3.20;;;23.10;66.50;;;;;;6244780;28;94111;-71
2023/05/01 04:35:18;;;;;;;4.40;3.40;;;23.10;66.50;;;;;;6247247;28;95011;-72
2023/05/01 04:38:21;;;;;;;3.95;3.05;;;23.10;66.50;;;;;;6240685;28;94217;-72
2023/05/01 04:41:23;;;;;;;4.28;3.22;;;23.10;66.70;;;;;;6252950;28;94065;-73
2023/05/01 04:44:25;;;;;;;3.50;3.10;;;23.10;66.70;;;;;;6248119;28;94181;-72
2023/05/01 04:47:27;;;;;;;3.28;2.97;;;23.10;66.90;;;;;;6248138;28;94438;-72
2023/05/01 04:50:29;;;;;;;3.75;3.20;;;23.10;67.10;;;;;;6249520;28;94086;-72
2023/05/01 04:53:32;;;;;;;3.90;3.10;;;23.10;67.10;;;;;;6251256;28;93166;-73
2023/05/01 04:56:34;;;;;;;4.65;3.50;;;23.10;67.20;;;;;;6242481;27;93666;-72
2023/05/01 04:59:36;;;;;;;4.32;3.60;;;23.10;67.70;;;;;;6238807;28;94153;-73
2023/05/01 05:02:38;;;;;;;6.13;3.67;;;23.10;68.50;;;;;;6244891;28;94165;-75
2023/05/01 05:05:40;;;;;;;5.32;3.83;;;23.10;69.20;;;;;;6248727;28;96015;-71
2023/05/01 05:08:43;;;;;;;5.30;3.70;;;23.20;69.80;;;;;;6251078;28;94036;-69
2023/05/01 05:11:45;;;;;;;6.40;3.97;;;23.20;69.20;;;;;;6250143;28;94187;-69
2023/05/01 05:14:47;;;;;;;4.07;3.22;;;23.10;69.20;;;;;;6242274;28;94366;-71
2023/05/01 05:17:49;;;;;;;4.25;3.72;;;23.20;69.10;;;;;;6240799;28;94417;-73
2023/05/01 05:20:51;;;;;;;5.78;3.72;;;23.20;69.50;;;;;;6244226;28;94366;-75
2023/05/01 05:23:55;;;;;;;4.63;3.97;;;23.20;69.40;;;;;;6245297;27;94147;-72
2023/05/01 05:26:57;;;;;;;4.72;4.15;;;23.20;69.30;;;;;;6252572;28;93461;-73
2023/05/01 05:29:59;;;;;;;4.82;4.15;;;23.30;69.40;;;;;;6249524;28;93029;-72
2023/05/01 05:33:00;;;;;;;5.80;4.18;;;23.30;69.50;;;;;;6242008;28;93997;-74
2023/05/01 05:36:03;;;;;;;5.10;4.60;;;23.30;69.60;;;;;;6242797;28;95072;-73
2023/05/01 05:39:06;;;;;;;5.22;4.57;;;23.30;69.60;;;;;;6237513;28;94145;-72
2023/05/01 05:42:08;;;;;;;6.55;4.90;;;23.30;69.60;;;;;;6252478;28;94080;-72
2023/05/01 05:45:10;;;;;;;5.30;4.60;;;23.40;69.60;;;;;;6251648;28;94013;-72
2023/05/01 05:48:13;;;;;;;6.00;4.47;;;23.40;69.60;;;;;;6247153;28;94416;-72
2023/05/01 05:51:15;;;;;;;5.93;4.07;;;23.40;69.40;;;;;;6250660;28;94147;-72
2023/05/01 05:54:18;;;;;;;5.70;4.10;;;23.40;68.30;;;;;;6245865;28;94899;-74
2023/05/01 05:57:20;;;;;;;6.45;4.57;;;23.40;68.60;;;;;;6244357;28;93229;-74
2023/05/01 06:00:22;;;;;;;6.25;5.00;;;23.40;68.90;;;;;;6243205;28;94418;-74
2023/05/01 06:03:25;;;;;;;7.20;5.35;;;23.40;69.20;;;;;;6249359;28;94034;-72
2023/05/01 06:06:28;;;;;;;9.02;5.07;;;23.50;69.40;;;;;;6244044;28;95119;-72
2023/05/01 06:09:32;;;;;;;4.90;4.40;;;23.50;69.60;;;;;;6246509;28;94151;-70
2023/05/01 06:12:34;;;;;;;7.57;4.70;;;23.50;69.60;;;;;;6248323;28;94300;-70
2023/05/01 06:15:37;;;;;;;5.57;4.60;;;23.50;70.00;;;;;;6249050;28;94291;-69
2023/05/01 06:18:39;;;;;;;5.68;4.50;;;23.50;69.90;;;;;;6243954;28;94465;-71
2023/05/01 06:21:41;;;;;;;5.13;4.60;;;23.60;70.10;;;;;;6251566;28;94308;-72
2023/05/01 06:24:45;;;;;;;5.47;4.97;;;23.50;70.40;;;;;;6252457;28;94193;-71
2023/05/01 06:27:47;;;;;;;6.43;4.88;;;23.60;70.40;;;;;;6247784;27;93737;-72
2023/05/01 06:30:49;;;;;;;6.10;4.80;;;23.50;70.30;;;;;;6251520;27;94140;-71
2023/05/01 06:33:51;;;;;;;8.68;4.93;;;23.60;70.40;;;;;;6254843;28;94156;-73
2023/05/01 06:36:53;;;;;;;5.80;5.03;;;23.60;70.50;;;;;;6253725;28;95523;-72
2023/05/01 06:39:57;;;;;;;5.53;4.72;;;23.60;70.50;;;;;;6242601;28;94395;-71
2023/05/01 06:43:00;;;;;;;5.95;5.00;;;23.60;70.70;;;;;;6254687;28;96292;-72
2023/05/01 06:46:02;;;;;;;6.47;5.10;;;23.60;70.80;;;;;;6253587;28;95244;-71
2023/05/01 06:49:04;;;;;;;6.00;5.40;;;23.60;70.80;;;;;;6253137;27;94347;-73
2023/05/01 06:52:06;;;;;;;5.68;4.85;;;23.60;70.80;;;;;;6255640;28;92914;-71
2023/05/01 06:55:11;;;;;;;5.82;5.18;;;23.70;70.90;;;;;;6255043;28;94113;-71
2023/05/01 06:58:13;;;;;;;8.00;4.75;;;23.70;71.00;;;;;;6252924;28;93290;-71
2023/05/01 07:01:15;;;;;;;6.32;5.00;;;23.70;71.00;;;;;;6254274;28;94248;-74
2023/05/01 07:04:17;;;;;;;5.38;4.60;;;23.70;70.90;;;;;;6253085;28;94502;-72
2023/05/01 07:07:19;;;;;;;5.85;4.40;;;23.70;69.80;;;;;;6249894;28;95076;-71
2023/05/01 07:10:23;;;;;;;5.53;5.03;;;23.70;70.30;;;;;;6254432;28;94143;-71
2023/05/01 07:13:25;;;;;;;7.13;5.07;;;23.70;70.50;;;;;;6251479;28;94092;-71
2023/05/01 07:16:27;;;;;;;5.93;5.13;;;23.80;70.70;;;;;;6245547;28;94625;-72
2023/05/01 07:19:29;;;;;;;5.90;4.70;;;23.80;70.80;;;;;;6254218;28;94123;-72
2023/05/01 07:22:31;;;;;;;5.70;5.10;;;23.80;70.80;;;;;;6250588;28;94604;-72
2023/05/01 07:25:36;;;;;;;7.30;5.22;;;23.80;70.80;;;;;;6254408;28;94143;-72
2023/05/01 07:28:38;;;;;;;5.88;5.28;;;23.70;70.90;;;;;;6253553;28;93375;-72
2023/05/01 07:31:40;;;;;;;7.18;5.28;;;23.80;71.00;;;;;;6253995;28;92894;-72
2023/05/01 07:34:42;;;;;;;6.38;5.43;;;23.80;71.00;;;;;;6254316;28;94131;-72
2023/05/01 07:37:44;;;;;;;6.00;4.85;;;23.70;71.00;;;;;;6250041;28;95099;-73
2023/05/01 07:40:48;;;;;;;6.72;5.00;;;23.70;71.00;;;;;;6245701;28;92993;-73
2023/05/01 07:43:50;;;;;;;6.88;5.13;;;23.80;71.10;;;;;;6252950;28;94453;-72
2023/05/01 07:46:52;;;;;;;9.55;5.07;;;23.80;71.10;;;;;;6250439;28;94184;-73
2023/05/01 07:49:54;;;;;;;11.45;5.20;;;23.80;71.50;;;;;;6250137;28;94473;-76
2023/05/01 07:52:56;;;;;;;7.20;5.03;;;23.80;71.70;;;;;;6248647;28;94065;-74
2023/05/01 07:56:07;;;;;;;5.93;5.00;;;23.80;71.90;;;;;;6252287;28;93050;-76
2023/05/01 07:59:09;;;;;;;6.78;5.00;;;23.80;73.10;;;;;;6253471;28;93255;-78
2023/05/01 08:02:12;;;;;;;7.68;5.00;;;23.90;73.30;;;;;;6253991;28;94064;-76
2023/05/01 08:05:14;;;;;;;10.50;5.90;;;23.90;74.40;;;;;;6252369;28;94489;-78
2023/05/01 08:08:19;;;;;;;7.00;5.28;;;23.90;75.40;;;;;;6252387;28;95109;-75
2023/05/01 08:11:23;;;;;;;7.00;5.35;;;24.00;75.80;;;;;;6240439;28;95706;-77
2023/05/01 08:14:25;;;;;;;8.82;5.90;;;24.00;76.40;;;;;;6252351;28;93013;-77
2023/05/01 08:17:27;;;;;;;8.65;5.72;;;24.00;78.80;;;;;;6252957;28;94063;-80
2023/05/01 08:20:29;;;;;;;9.35;5.93;;;24.10;79.10;;;;;;6253785;27;94066;-73
2023/05/01 08:23:31;;;;;;;8.85;5.72;;;24.10;80.00;;;;;;6250539;28;94094;-73
2023/05/01 08:26:34;;;;;;;7.97;5.68;;;24.20;79.60;;;;;;6252946;28;94147;-77
2023/05/01 08:29:36;;;;;;;6.28;5.57;;;24.20;78.60;;;;;;6250627;28;92337;-76
2023/05/01 08:32:38;;;;;;;8.20;5.90;;;24.30;77.40;;;;;;6248596;28;94419;-77
2023/05/01 08:35:40;;;;;;;6.25;5.07;;;24.20;76.70;;;;;;6251126;28;94128;-76
2023/05/01 08:38:42;;;;;;;7.72;5.38;;;24.20;75.80;;;;;;6238366;27;95407;-77
2023/05/01 08:41:47;;;;;;;5.22;4.15;;;24.20;75.10;;;;;;6245533;28;94348;-76
2023/05/01 08:44:50;;;;;;;5.30;4.20;;;24.20;71.90;;;;;;6249368;27;94077;-75
2023/05/01 08:47:54;;;;;;;5.47;4.30;;;24.20;70.60;;;;;;6248108;28;94134;-72
2023/05/01 08:50:59;;;;;;;6.95;4.25;;;24.10;70.00;;;;;;6247280;28;92795;-76
2023/05/01 08:54:03;;;;;;;5.53;3.92;;;24.10;68.80;;;;;;6253040;28;94358;-75
2023/05/01 08:57:08;;;;;;;5.50;3.78;;;24.20;69.30;;;;;;6248863;28;94080;-74
2023/05/01 09:00:16;;;;;;;5.00;4.15;;;24.20;67.60;;;;;;6251377;28;93678;-74
2023/05/01 09:03:20;;;;;;;4.00;3.60;;;24.20;68.30;;;;;;6246673;28;94098;-73
2023/05/01 09:06:23;;;;;;;3.78;3.40;;;24.30;67.80;;;;;;6248825;28;94563;-72
2023/05/01 09:09:25;;;;;;;26.08;23.27;;;24.30;67.50;;;;;;6246317;28;95175;-73
2023/05/01 09:12:29;;;;;;;107.50;97.65;;;24.40;67.90;;;;;;6250599;28;94060;-72
2023/05/01 09:15:32;;;;;;;53.67;47.30;;;24.30;66.60;;;;;;6249472;28;94224;-73
2023/05/01 09:18:35;;;;;;;31.02;24.30;;;24.40;65.90;;;;;;6246222;28;93119;-75
2023/05/01 09:21:38;;;;;;;20.52;18.33;;;24.60;65.00;;;;;;6248512;28;93753;-72
2023/05/01 09:24:40;;;;;;;16.98;15.25;;;24.70;64.20;;;;;;6249626;28;94159;-73
2023/05/01 09:27:45;;;;;;;15.88;12.82;;;24.70;63.50;;;;;;6240789;28;94247;-73
2023/05/01 09:30:47;;;;;;;16.73;12.60;;;24.70;63.80;;;;;;6249969;28;92276;-73
2023/05/01 09:33:54;;;;;;;16.58;12.10;;;24.70;64.70;;;;;;6251352;28;94102;-74
2023/05/01 09:36:56;;;;;;;14.48;11.73;;;24.60;64.90;;;;;;6239820;28;94409;-74
2023/05/01 09:40:07;;;;;;;12.85;11.40;;;24.50;65.00;;;;;;6250460;28;95036;-73
2023/05/01 09:43:10;;;;;;;14.40;10.63;;;24.50;65.30;;;;;;6239626;28;94215;-73
2023/05/01 09:46:12;;;;;;;12.85;10.60;;;24.40;65.10;;;;;;6241325;28;94142;-74
2023/05/01 09:49:15;;;;;;;10.95;9.23;;;24.40;65.20;;;;;;6250525;27;94167;-74
2023/05/01 09:52:17;;;;;;;11.48;9.63;;;24.30;65.10;;;;;;6255434;28;93034;-74
2023/05/01 09:55:20;;;;;;;11.07;9.25;;;24.30;65.20;;;;;;6256517;28;94573;-74
2023/05/01 09:58:30;;;;;;;10.32;9.07;;;24.30;65.70;;;;;;6253349;28;94889;-72
2023/05/01 10:01:39;;;;;;;10.45;9.15;;;24.30;66.10;;;;;;6257255;28;93436;-74
2023/05/01 10:04:42;;;;;;;10.18;9.00;;;24.30;66.20;;;;;;6256416;28;93069;-74
2023/05/01 10:07:57;;;;;;;10.63;8.32;;;24.30;66.20;;;;;;6256166;28;94169;-73
2023/05/01 10:11:03;;;;;;;11.45;8.48;;;24.30;66.20;;;;;;6255721;28;95081;-74
2023/05/01 10:14:08;;;;;;;8.80;7.55;;;24.20;66.50;;;;;;6254384;28;93210;-73
2023/05/01 10:17:18;;;;;;;8.90;8.00;;;24.20;66.50;;;;;;6256195;28;94233;-73
2023/05/01 10:20:20;;;;;;;9.70;7.90;;;24.20;66.70;;;;;;6255248;28;94205;-74
2023/05/01 10:23:24;;;;;;;10.57;7.40;;;24.10;67.00;;;;;;6247561;28;94135;-73
2023/05/01 10:26:27;;;;;;;9.60;7.75;;;24.10;67.30;;;;;;6251193;28;94755;-74
2023/05/01 10:29:31;;;;;;;9.30;7.30;;;24.10;67.60;;;;;;6255970;28;94058;-73
2023/05/01 10:32:35;;;;;;;8.57;6.85;;;24.10;67.70;;;;;;6257657;28;93527;-74
2023/05/01 10:35:40;;;;;;;8.18;6.82;;;24.10;67.60;;;;;;6255328;28;94333;-74
2023/05/01 10:38:47;;;;;;;7.38;6.63;;;24.10;67.70;;;;;;6248818;28;93847;-72
2023/05/01 10:42:05;;;;;;;8.55;6.50;;;24.10;67.90;;;;;;6250437;27;95013;-73
2023/05/01 10:45:30;;;;;;;10.57;6.28;;;24.10;68.60;;;;;;6250624;28;94075;-72
2023/05/01 10:48:57;;;;;;;6.85;6.15;;;24.10;68.90;;;;;;6253624;28;94140;-73
2023/05/01 10:52:02;;;;;;;9.55;5.60;;;24.00;68.90;;;;;;6250582;27;93281;-73
2023/05/01 10:55:32;;;;;;;6.25;5.40;;;24.00;69.00;;;;;;6251011;28;92973;-74
2023/05/01 10:58:58;;;;;;;5.80;4.80;;;24.00;69.60;;;;;;6247211;28;94416;-74
2023/05/01 11:02:22;;;;;;;5.15;4.65;;;23.90;69.60;;;;;;6248827;27;94170;-73
2023/05/01 11:06:06;;;;;;;7.05;4.60;;;24.00;69.70;;;;;;6249091;28;93495;-74
2023/05/01 11:09:36;;;;;;;5.13;4.05;;;23.90;69.40;;;;;;6242747;28;94400;-74
2023/05/01 11:12:51;;;;;;;5.00;4.40;;;23.90;69.40;;;;;;6248347;28;94050;-74
2023/05/01 11:15:53;;;;;;;4.22;3.80;;;23.90;69.10;;;;;;6249636;28;95034;-74
2023/05/01 11:18:57;;;;;;;5.03;3.72;;;23.90;68.60;;;;;;6251747;28;94024;-75
2023/05/01 11:21:59;;;;;;;4.97;4.03;;;23.90;68.80;;;;;;6246364;28;94145;-75
2023/05/01 11:25:03;;;;;;;5.30;3.80;;;23.90;68.90;;;;;;6244174;28;94080;-75
2023/05/01 11:28:05;;;;;;;5.43;3.72;;;23.90;68.40;;;;;;6251354;28;94176;-74
2023/05/01 11:31:08;;;;;;;4.35;3.65;;;23.80;68.40;;;;;;6251588;27;93126;-75
2023/05/01 11:34:12;;;;;;;6.28;3.60;;;23.90;68.80;;;;;;6250241;27;94155;-74
2023/05/01 11:37:14;;;;;;;4.30;3.10;;;23.80;68.90;;;;;;6249910;28;93583;-73
2023/05/01 11:40:21;;;;;;;4.00;3.20;;;23.80;68.90;;;;;;6244508;27;94214;-74
2023/05/01 11:43:23;;;;;;;4.68;3.50;;;23.80;68.90;;;;;;6247422;27;94337;-73
2023/05/01 11:46:26;;;;;;;4.70;3.13;;;23.80;69.10;;;;;;6242370;27;95024;-74
2023/05/01 11:49:30;;;;;;;3.67;3.00;;;23.80;68.90;;;;;;6246518;27;94190;-73
2023/05/01 11:52:42;;;;;;;5.07;3.45;;;23.80;68.70;;;;;;6248087;27;94392;-73
2023/05/01 11:55:44;;;;;;;5.13;3.40;;;23.80;68.80;;;;;;6244662;27;94116;-73
2023/05/01 11:58:47;;;;;;;7.85;3.90;;;23.80;70.00;;;;;;6246402;27;94624;-73
2023/05/01 12:01:50;;;;;;;5.78;3.70;;;23.70;69.10;;;;;;6245261;27;94176;-73
2023/05/01 12:04:53;;;;;;;5.93;3.40;;;23.80;69.30;;;;;;6249406;27;94098;-73
2023/05/01 12:08:12;;;;;;;5.78;3.90;;;23.70;69.20;;;;;;6247098;28;93357;-74
2023/05/01 12:11:15;;;;;;;6.18;3.53;;;23.70;68.80;;;;;;6245457;28;94145;-74
2023/05/01 12:14:17;;;;;;;5.80;3.35;;;23.70;67.90;;;;;;6249130;28;94643;-74
2023/05/01 12:17:20;;;;;;;4.50;3.45;;;23.70;67.70;;;;;;6249462;28;95000;-73
2023/05/01 12:20:36;;;;;;;4.55;3.00;;;23.70;67.40;;;;;;6250576;28;94203;-73
2023/05/01 12:23:38;;;;;;;4.25;3.05;;;23.70;66.80;;;;;;6242065;28;94230;-72
2023/05/01 12:26:41;;;;;;;5.57;3.25;;;23.70;66.30;;;;;;6248016;28;94107;-74
2023/05/01 12:29:45;;;;;;;3.90;2.88;;;23.70;66.00;;;;;;6253192;28;94095;-72
2023/05/01 12:32:48;;;;;;;5.30;3.25;;;23.70;65.70;;;;;;6253233;28;94115;-73
2023/05/01 12:35:51;;;;;;;5.15;3.47;;;23.70;65.70;;;;;;6252983;28;93995;-72
2023/05/01 12:38:59;;;;;;;6.60;3.72;;;23.70;65.60;;;;;;6253024;28;93365;-72
2023/05/01 12:42:01;;;;;;;5.53;3.40;;;23.70;65.40;;;;;;6243428;28;94048;-73
2023/05/01 12:45:03;;;;;;;4.07;3.00;;;23.70;65.10;;;;;;6252858;28;94230;-73
2023/05/01 12:48:12;;;;;;;6.40;3.40;;;23.60;64.90;;;;;;6253048;28;95094;-73
2023/05/01 12:51:20;;;;;;;5.43;3.42;;;23.70;65.00;;;;;;6250923;28;94050;-73
2023/05/01 12:54:23;;;;;;;4.28;2.90;;;23.60;64.40;;;;;;6252637;28;94078;-73
2023/05/01 12:57:25;;;;;;;4.25;3.20;;;23.60;64.00;;;;;;6252897;28;94424;-74
2023/05/01 13:00:27;;;;;;;4.63;3.33;;;23.60;64.00;;;;;;6253095;28;92987;-73
2023/05/01 13:03:30;;;;;;;5.65;3.40;;;23.60;64.20;;;;;;6253053;28;94300;-74
2023/05/01 13:06:34;;;;;;;5.80;3.13;;;23.60;64.00;;;;;;6253114;28;94039;-73
2023/05/01 13:09:36;;;;;;;6.00;3.33;;;23.60;64.10;;;;;;6253124;28;93419;-74
2023/05/01 13:12:45;;;;;;;5.82;3.40;;;23.60;64.40;;;;;;6252531;28;94106;-73
2023/05/01 13:15:47;;;;;;;5.82;3.60;;;23.60;64.80;;;;;;6252975;28;94286;-73
2023/05/01 13:18:50;;;;;;;6.25;3.88;;;23.60;64.90;;;;;;6252780;28;93990;-73
2023/05/01 13:21:54;;;;;;;6.57;3.50;;;23.60;65.00;;;;;;6249420;28;94141;-74
2023/05/01 13:24:57;;;;;;;4.60;3.58;;;23.60;65.10;;;;;;6250322;27;94096;-73
2023/05/01 13:27:59;;;;;;;4.60;3.30;;;23.60;64.70;;;;;;6256773;28;94193;-74
2023/05/01 13:31:01;;;;;;;6.45;3.70;;;23.50;65.50;;;;;;6256887;28;94185;-73
2023/05/01 13:34:05;;;;;;;4.53;3.08;;;23.50;65.00;;;;;;6244959;28;94115;-73
2023/05/01 13:37:12;;;;;;;5.00;3.58;;;23.60;65.10;;;;;;6255246;28;94125;-73
2023/05/01 13:40:14;;;;;;;5.00;3.35;;;23.50;64.80;;;;;;6248080;28;93505;-74
2023/05/01 13:43:17;;;;;;;4.25;3.17;;;23.60;64.30;;;;;;6256847;28;94077;-73
2023/05/01 13:46:21;;;;;;;4.82;3.05;;;23.60;64.40;;;;;;6257490;28;94657;-74
2023/05/01 13:49:24;;;;;;;4.57;2.97;;;23.50;64.10;;;;;;6254495;28;95466;-74
2023/05/01 13:52:27;;;;;;;3.33;3.00;;;23.50;64.10;;;;;;6254622;28;94088;-74
2023/05/01 13:55:29;;;;;;;4.18;3.10;;;23.50;64.30;;;;;;6255739;28;92967;-74
2023/05/01 13:58:33;;;;;;;4.43;3.10;;;23.50;63.90;;;;;;6256939;28;94111;-74
2023/05/01 14:01:41;;;;;;;4.18;3.20;;;23.50;63.80;;;;;;6256240;28;94121;-74
2023/05/01 14:04:43;;;;;;;4.13;3.10;;;23.50;63.50;;;;;;6256603;28;94181;-75
2023/05/01 14:07:53;;;;;;;3.92;3.00;;;23.50;63.70;;;;;;6257625;28;94485;-74
2023/05/01 14:10:57;;;;;;;3.78;2.88;;;23.50;63.20;;;;;;6256912;28;93424;-75
2023/05/01 14:13:59;;;;;;;3.40;2.70;;;23.50;63.20;;;;;;6249456;28;94067;-74
2023/05/01 14:17:02;;;;;;;3.53;2.60;;;23.50;63.70;;;;;;6250433;28;94049;-74
2023/05/01 14:20:04;;;;;;;2.85;2.50;;;23.50;63.70;;;;;;6255095;28;95403;-75
2023/05/01 14:23:09;;;;;;;3.88;3.10;;;23.50;63.70;;;;;;6252255;28;94159;-74
2023/05/01 14:26:11;;;;;;;4.22;3.10;;;23.50;64.20;;;;;;6256544;28;95362;-75
2023/05/01 14:29:22;;;;;;;4.10;3.25;;;23.40;64.20;;;;;;6254833;28;94144;-74
2023/05/01 14:32:25;;;;;;;3.33;2.72;;;23.50;64.60;;;;;;6251136;28;94131;-74
2023/05/01 14:35:27;;;;;;;4.60;3.00;;;23.50;64.70;;;;;;6255100;28;94197;-74
2023/05/01 14:38:37;;;;;;;4.03;3.08;;;23.40;64.90;;;;;;6252039;28;94289;-74
2023/05/01 14:41:41;;;;;;;3.67;3.10;;;23.50;65.00;;;;;;6257052;28;93575;-75
2023/05/01 14:44:43;;;;;;;4.38;3.10;;;23.40;64.90;;;;;;6243710;27;94095;-75
2023/05/01 14:47:47;;;;;;;3.80;2.90;;;23.40;64.70;;;;;;6255776;28;93339;-74
2023/05/01 14:50:49;;;;;;;4.57;3.05;;;23.40;64.90;;;;;;6249086;28;95091;-74
2023/05/01 14:53:52;;;;;;;4.13;3.08;;;23.40;65.20;;;;;;6255139;28;94027;-74
2023/05/01 14:56:54;;;;;;;3.88;2.88;;;23.40;65.30;;;;;;6255052;28;94090;-74
2023/05/01 14:59:57;;;;;;;3.75;2.97;;;23.40;65.50;;;;;;6252661;28;94093;-74
2023/05/01 15:02:59;;;;;;;5.25;3.42;;;23.50;65.70;;;;;;6243297;28;94381;-74
2023/05/01 15:06:02;;;;;;;3.63;3.08;;;23.40;65.90;;;;;;6245694;28;94170;-74
2023/05/01 15:09:06;;;;;;;4.38;3.03;;;23.40;66.10;;;;;;6245766;27;94124;-74
2023/05/01 15:12:08;;;;;;;3.40;2.92;;;23.40;66.20;;;;;;6252741;28;93537;-75
2023/05/01 15:15:11;;;;;;;4.90;3.33;;;23.40;66.20;;;;;;6254376;28;94192;-74
2023/05/01 15:18:13;;;;;;;4.43;3.00;;;23.40;66.40;;;;;;6255656;28;94402;-75
2023/05/01 15:21:15;;;;;;;4.68;3.20;;;23.40;66.50;;;;;;6254538;28;95044;-76
2023/05/01 15:24:19;;;;;;;3.95;3.05;;;23.40;66.60;;;;;;6243527;28;94094;-73
2023/05/01 15:27:21;;;;;;;5.07;3.08;;;23.40;66.60;;;;;;6253685;28;94424;-74
2023/05/01 15:30:23;;;;;;;4.38;2.83;;;23.40;66.70;;;;;;6254450;28;94292;-73
2023/05/01 15:33:26;;;;;;;3.80;3.13;;;23.40;66.70;;;;;;6255069;28;94154;-74
2023/05/01 15:36:28;;;;;;;3.47;2.90;;;23.40;66.60;;;;;;6254293;28;93975;-74
2023/05/01 15:39:32;;;;;;;3.50;2.80;;;23.40;66.60;;;;;;6247066;28;94171;-74
2023/05/01 15:42:34;;;;;;;4.18;3.10;;;23.40;66.70;;;;;;6255285;28;94038;-74
2023/05/01 15:45:41;;;;;;;3.40;2.97;;;23.40;66.90;;;;;;6254927;28;94391;-74
2023/05/01 15:48:44;;;;;;;4.22;3.15;;;23.40;67.80;;;;;;6254076;27;93359;-74
2023/05/01 15:51:46;;;;;;;3.20;2.90;;;23.40;66.90;;;;;;6248913;28;95040;-73
2023/05/01 15:54:49;;;;;;;5.10;3.25;;;23.40;66.80;;;;;;6253852;28;94076;-72
2023/05/01 15:57:51;;;;;;;4.38;3.25;;;23.40;67.00;;;;;;6251867;28;93105;-72